Time;durP1;ratioP1;P1;durP2;ratioP2;P2;SDS_P1;SDS_P2;PMS_P1;PMS_P2;Temp;Humidity;BMP_temperature;BMP_pressure;BME280_temperature;BME280_humidity;BME280_pressure;Samples;Min_cycle;Max_cycle;Signal;HPM_P1;HPM_P2
2022/12/23 00:01:22;;;;;;;6.60;5.87;;;;;;;-143.84;58.79;45199.50;5032879;28;20453;-77
2022/12/23 00:03:49;;;;;;;8.23;5.20;;;;;;;-143.84;55.03;45224.25;5035615;28;20586;-76
2022/12/23 00:06:18;;;;;;;9.93;5.63;;;;;;;-143.84;52.38;45188.06;5035735;28;20465;-76
2022/12/23 00:08:46;;;;;;;11.07;6.63;;;;;;;-143.84;53.24;45199.50;5035560;28;20458;-77
2022/12/23 00:11:16;;;;;;;7.90;5.97;;;;;;;-143.84;52.99;45197.59;5035116;28;20569;-76
2022/12/23 00:16:30;;;;;;;7.13;6.40;;;;;;;-143.84;53.62;45207.13;5035327;28;20419;-76
2022/12/23 00:18:57;;;;;;;9.83;5.80;;;;;;;-143.84;54.12;45205.22;5035266;28;20448;-76
2022/12/23 00:21:24;;;;;;;6.83;5.70;;;;;;;-143.84;53.15;45205.22;5035225;28;20448;-76
2022/12/23 00:23:52;;;;;;;8.73;5.50;;;;;;;-143.84;52.92;45199.50;5035087;28;20495;-76
2022/12/23 00:26:22;;;;;;;10.40;4.93;;;;;;;-143.84;52.47;45203.31;5049702;28;20438;-76
2022/12/23 00:28:50;;;;;;;7.33;5.23;;;;;;;-143.84;52.07;45199.50;5054844;28;20482;-76
2022/12/23 00:31:18;;;;;;;5.53;5.13;;;;;;;-143.84;49.45;45216.63;5054670;28;20435;-77
2022/12/23 00:33:50;;;;;;;10.20;6.30;;;;;;;-143.84;49.11;45205.22;5054751;28;20451;-76
2022/12/23 00:36:20;;;;;;;7.80;5.50;;;;;;;-143.84;49.03;45228.06;5054606;28;20443;-76
2022/12/23 00:44:16;;;;;;;7.00;4.87;;;;;;;-143.84;50.90;45193.78;5054478;28;20513;-76
2022/12/23 00:46:43;;;;;;;7.87;4.90;;;;;;;-143.84;51.01;45197.59;5054338;28;20464;-76
2022/12/23 00:51:58;;;;;;;5.80;4.50;;;;;;;-143.84;50.37;45188.06;5054670;28;20433;-76
2022/12/23 00:54:26;;;;;;;4.40;4.00;;;;;;;-143.84;50.06;45210.94;5054348;28;20497;-76
2022/12/23 00:56:53;;;;;;;7.03;4.47;;;;;;;-143.84;49.56;45210.94;5054274;28;20496;-77
2022/12/23 00:59:20;;;;;;;5.13;4.63;;;;;;;-143.84;47.94;45214.72;5040571;28;20505;-79
2022/12/23 01:07:17;;;;;;;7.13;5.33;;;;;;;-143.84;46.41;45218.53;5034962;28;20426;-79
2022/12/23 01:09:45;;;;;;;5.80;4.43;;;;;;;-143.84;46.89;45210.94;5034900;28;20783;-79
2022/12/23 01:12:12;;;;;;;11.10;5.30;;;;;;;-143.84;46.52;45191.88;5034698;28;20450;-79
2022/12/23 01:14:40;;;;;;;5.43;4.87;;;;;;;-143.84;47.53;45205.22;5034835;28;20439;-79
2022/12/23 01:17:08;;;;;;;8.57;5.67;;;;;;;-143.84;47.40;45216.63;5035143;28;20505;-79
2022/12/23 01:19:37;;;;;;;8.53;5.87;;;;;;;-143.84;48.08;45214.72;5035113;28;20470;-79
2022/12/23 01:22:04;;;;;;;7.00;5.53;;;;;;;-143.84;48.29;45201.41;5034589;28;20439;-79
2022/12/23 01:24:32;;;;;;;6.90;4.60;;;;;;;-143.84;48.83;45207.13;5034816;28;20593;-79
2022/12/23 01:27:00;;;;;;;8.90;5.50;;;;;;;-143.84;48.25;45193.78;5034547;28;20443;-79
2022/12/23 01:29:28;;;;;;;5.90;5.00;;;;;;;-143.84;48.31;45199.50;5034370;28;20498;-79
2022/12/23 01:31:55;;;;;;;5.70;4.80;;;;;;;-143.84;46.41;45191.88;5034192;28;20999;-79
2022/12/23 01:34:22;;;;;;;8.73;4.80;;;;;;;-143.84;46.32;45226.16;5034222;28;20440;-79
2022/12/23 01:36:51;;;;;;;9.47;6.37;;;;;;;-143.84;48.77;45209.03;5033908;28;20484;-79
2022/12/23 01:39:18;;;;;;;8.73;6.97;;;;;;;-143.84;51.65;45195.69;5033214;28;20435;-79
2022/12/23 01:44:49;;;;;;;11.93;7.23;;;;;;;-143.84;53.35;45199.50;5034339;28;20467;-79
2022/12/23 01:47:22;;;;;;;10.47;7.57;;;;;;;-143.84;53.59;45191.88;5033970;28;20996;-79
2022/12/23 01:49:53;;;;;;;9.03;6.60;;;;;;;-143.84;52.45;45186.16;5033800;28;20453;-79
2022/12/23 01:52:21;;;;;;;6.30;4.93;;;;;;;-143.84;49.67;45205.22;5033918;28;20440;-78
2022/12/23 01:54:49;;;;;;;5.50;5.00;;;;;;;-143.84;50.16;45203.31;5033838;28;20451;-79
2022/12/23 01:57:16;;;;;;;10.10;7.40;;;;;;;-143.84;50.80;45210.94;5033720;28;20478;-78
2022/12/23 02:05:14;;;;;;;8.87;6.37;;;;;;;-143.84;54.25;45178.56;5033726;28;20482;-78
2022/12/23 02:10:36;;;;;;;7.63;5.30;;;;;;;-143.84;53.76;45195.69;5033596;28;20558;-78
2022/12/23 02:13:12;;;;;;;9.17;6.60;;;;;;;-143.84;53.55;45229.97;5032918;28;20449;-78
2022/12/23 02:18:53;;;;;;;8.17;6.60;;;;;;;-143.84;57.19;45205.22;5033820;28;20426;-78
2022/12/23 02:21:34;;;;;;;10.90;7.00;;;;;;;-143.84;58.11;45189.97;5032031;28;20442;-79
2022/12/23 02:24:34;;;;;;;14.47;6.67;;;;;;;-143.84;58.70;45197.59;5031365;28;20482;-79
2022/12/23 02:27:12;;;;;;;12.97;6.80;;;;;;;-143.84;59.06;45207.13;5033055;28;20980;-79
2022/12/23 02:30:00;;;;;;;7.27;5.40;;;;;;;-143.84;58.12;45210.94;5033402;28;21335;-79
2022/12/23 02:32:41;;;;;;;6.90;6.00;;;;;;;-143.84;56.95;45210.94;5033133;28;20442;-79
2022/12/23 02:35:13;;;;;;;5.30;4.80;;;;;;;-143.84;55.67;45199.50;5032651;28;20453;-79
2022/12/23 02:37:49;;;;;;;9.23;6.07;;;;;;;-143.84;53.94;45216.63;5033005;28;20489;-79
2022/12/23 02:40:28;;;;;;;6.17;4.97;;;;;;;-143.84;54.66;45201.41;5031038;28;20936;-79
2022/12/23 02:43:00;;;;;;;6.33;5.37;;;;;;;-143.84;53.04;45209.03;5032161;28;20446;-79
2022/12/23 02:45:36;;;;;;;10.53;6.83;;;;;;;-143.84;52.24;45209.03;5033051;28;20473;-79
2022/12/23 02:48:12;;;;;;;5.73;4.40;;;;;;;-143.84;52.44;45197.59;5033025;28;20874;-79
2022/12/23 02:50:43;;;;;;;7.73;5.07;;;;;;;-143.84;52.64;45186.16;5032893;28;20443;-79
2022/12/23 02:53:17;;;;;;;7.60;4.83;;;;;;;-143.84;52.47;45210.94;5032801;28;20489;-79
2022/12/23 02:55:47;;;;;;;8.50;5.20;;;;;;;-143.84;52.74;45191.88;5032819;28;20511;-79
2022/12/23 02:58:17;;;;;;;5.73;5.13;;;;;;;-143.84;53.02;45210.94;5028457;28;20456;-79
2022/12/23 03:00:45;;;;;;;6.93;5.53;;;;;;;-143.84;53.63;45228.06;5013089;28;20435;-79
2022/12/23 03:03:15;;;;;;;6.20;4.63;;;;;;;-143.84;53.62;45209.03;5013213;28;20857;-79
2022/12/23 03:05:45;;;;;;;4.77;4.37;;;;;;;-143.84;54.27;45182.38;5013175;28;20570;-79
2022/12/23 03:08:16;;;;;;;7.20;5.27;;;;;;;-143.84;54.35;45205.22;5013248;28;20454;-79
2022/12/23 03:11:00;;;;;;;5.87;4.23;;;;;;;-143.84;53.46;45231.88;5012810;28;20907;-79
2022/12/23 03:13:39;;;;;;;6.00;4.90;;;;;;;-143.84;53.90;45216.63;5012891;28;20432;-79
2022/12/23 03:16:14;;;;;;;4.83;4.43;;;;;;;-143.84;53.77;45197.59;5012794;28;20493;-79
2022/12/23 03:18:52;;;;;;;5.20;4.70;;;;;;;-143.84;54.01;45203.31;5013098;28;20423;-79
2022/12/23 03:21:29;;;;;;;8.23;4.70;;;;;;;-143.84;54.34;45191.88;5012910;28;20502;-79
2022/12/23 03:24:06;;;;;;;7.57;4.93;;;;;;;-143.84;53.59;45209.03;5012611;28;20436;-79
2022/12/23 03:26:39;;;;;;;8.13;5.50;;;;;;;-143.84;53.32;45203.31;5013345;28;20846;-79
2022/12/23 03:29:12;;;;;;;5.13;4.10;;;;;;;-143.84;53.44;45197.59;5012982;28;20454;-79
2022/12/23 03:31:41;;;;;;;4.70;4.27;;;;;;;-143.84;53.25;45195.69;5042526;28;20450;-80
2022/12/23 03:34:13;;;;;;;5.97;4.60;;;;;;;-143.84;53.68;45189.97;5052141;28;20433;-79
2022/12/23 03:36:44;;;;;;;5.23;4.33;;;;;;;-143.84;53.35;45205.22;5051806;28;20434;-79
2022/12/23 03:39:15;;;;;;;4.40;4.00;;;;;;;-143.84;53.33;45228.06;5052549;28;20426;-79
2022/12/23 03:41:47;;;;;;;7.47;5.93;;;;;;;-143.84;53.14;45195.69;5052284;28;20499;-79
2022/12/23 03:44:20;;;;;;;6.10;5.20;;;;;;;-143.84;52.40;45205.22;5051025;28;20950;-79
2022/12/23 03:47:05;;;;;;;6.10;5.50;;;;;;;-143.84;53.09;45210.94;5050905;28;20500;-79
2022/12/23 03:49:37;;;;;;;8.30;5.27;;;;;;;-143.84;52.56;45209.03;5051546;28;20442;-79
2022/12/23 03:52:11;;;;;;;4.63;3.87;;;;;;;-143.84;52.56;45199.50;5051942;28;20499;-79
2022/12/23 03:54:44;;;;;;;6.33;5.03;;;;;;;-143.84;50.97;45197.59;5052106;28;20445;-78
2022/12/23 03:57:13;;;;;;;6.13;5.30;;;;;;;-143.84;51.19;45207.13;5052331;28;20484;-78
2022/12/23 03:59:44;;;;;;;7.30;5.10;;;;;;;-143.84;50.95;45241.41;5051848;28;20449;-78
2022/12/23 04:02:19;;;;;;;6.93;5.47;;;;;;;-143.84;50.73;45207.13;5052003;28;20438;-78
2022/12/23 04:05:04;;;;;;;5.33;4.83;;;;;;;-143.84;51.15;45224.25;5052044;28;20959;-79
2022/12/23 04:07:37;;;;;;;8.00;5.87;;;;;;;-143.84;56.12;45220.44;5051834;28;20449;-79
2022/12/23 04:10:05;;;;;;;12.13;7.83;;;;;;;-143.84;60.10;45193.78;5051799;28;20473;-79
2022/12/23 04:12:33;;;;;;;7.73;6.57;;;;;;;-143.84;61.09;45201.41;5052457;28;20442;-79
2022/12/23 04:15:00;;;;;;;12.77;7.47;;;;;;;-143.84;60.20;45214.72;5051992;28;20483;-79
2022/12/23 04:17:29;;;;;;;13.33;8.00;;;;;;;-143.84;60.72;45210.94;5034174;28;20441;-79
2022/12/23 04:19:57;;;;;;;13.60;7.20;;;;;;;-143.84;61.52;45174.75;5051600;28;20491;-79
2022/12/23 04:22:25;;;;;;;8.07;5.57;;;;;;;-143.84;61.63;45197.59;5051416;28;20947;-79
2022/12/23 04:24:53;;;;;;;10.57;6.67;;;;;;;-143.84;61.83;45228.06;5051676;28;20466;-79
2022/12/23 04:27:20;;;;;;;9.43;7.70;;;;;;;-143.84;61.89;45197.59;5052153;28;20430;-79
2022/12/23 04:29:47;;;;;;;10.23;8.47;;;;;;;-143.84;62.88;45191.88;5051902;28;20517;-79
2022/12/23 04:32:14;;;;;;;15.20;8.00;;;;;;;-143.84;63.29;45207.13;5051661;28;20492;-79
2022/12/23 04:34:42;;;;;;;17.33;9.30;;;;;;;-143.84;64.06;45205.22;5051648;28;20503;-80
2022/12/23 04:37:10;;;;;;;15.70;8.87;;;;;;;-143.84;64.42;45189.97;5051820;28;20426;-82
2022/12/23 04:39:37;;;;;;;9.23;7.47;;;;;;;-143.84;64.66;45220.44;5051545;28;20878;-81
2022/12/23 04:42:05;;;;;;;8.83;6.70;;;;;;;-143.84;64.44;45222.34;5051451;28;20434;-82
2022/12/23 04:44:32;;;;;;;12.60;8.47;;;;;;;-143.84;63.76;45218.53;5051319;28;20846;-81
2022/12/23 04:46:59;;;;;;;9.63;7.43;;;;;;;-143.84;64.39;45201.41;5051919;28;20442;-78
2022/12/23 04:49:26;;;;;;;8.60;7.43;;;;;;;-143.84;64.38;45193.78;5055076;28;20449;-77
2022/12/23 04:51:53;;;;;;;10.27;6.73;;;;;;;-143.84;64.50;45193.78;5054913;28;20499;-78
2022/12/23 04:54:22;;;;;;;13.00;8.20;;;;;;;-143.84;64.22;45203.31;5054628;28;20441;-76
2022/12/23 04:56:49;;;;;;;11.40;7.20;;;;;;;-143.84;64.45;45222.34;5055004;28;20920;-83
2022/12/23 04:59:16;;;;;;;11.77;8.40;;;;;;;-143.84;64.51;45203.31;5042218;28;20450;-82
2022/12/23 05:01:43;;;;;;;11.90;7.73;;;;;;;-143.84;64.33;45218.53;5034715;28;20473;-83
2022/12/23 05:04:10;;;;;;;7.67;6.10;;;;;;;-143.84;64.33;45243.31;5035182;28;20561;-79
2022/12/23 05:06:38;;;;;;;12.30;7.67;;;;;;;-143.84;63.62;45207.13;5034601;28;21005;-75
2022/12/23 05:09:06;;;;;;;13.77;7.20;;;;;;;-143.84;65.99;45195.69;5034567;28;20442;-75
2022/12/23 05:11:34;;;;;;;9.60;7.40;;;;;;;-143.84;65.40;45195.69;5034552;28;20484;-77
2022/12/23 05:14:02;;;;;;;10.83;7.60;;;;;;;-143.84;63.74;45203.31;5034932;28;20447;-78
2022/12/23 05:16:30;;;;;;;11.27;7.50;;;;;;;-143.84;63.60;45207.13;5034308;28;20438;-76
2022/12/23 05:18:57;;;;;;;8.80;7.43;;;;;;;-143.84;63.06;45212.84;5033674;28;20443;-76
2022/12/23 05:21:24;;;;;;;7.67;6.93;;;;;;;-143.84;63.04;45220.44;5033993;28;20816;-76
2022/12/23 05:23:52;;;;;;;8.87;7.93;;;;;;;-143.84;62.83;45186.16;5033551;28;20443;-76
2022/12/23 05:26:19;;;;;;;16.70;8.73;;;;;;;-143.84;62.62;45205.22;5034077;28;20544;-77
2022/12/23 05:28:48;;;;;;;11.27;8.37;;;;;;;-143.84;62.34;45210.94;5034170;28;20549;-76
2022/12/23 05:31:16;;;;;;;11.70;7.97;;;;;;;-143.84;61.52;45207.13;5033861;28;20447;-76
2022/12/23 05:33:43;;;;;;;14.17;8.10;;;;;;;-143.84;61.72;45188.06;5033817;28;20811;-77
2022/12/23 05:36:11;;;;;;;11.53;8.30;;;;;;;-143.84;61.97;45186.16;5034695;28;20485;-79
2022/12/23 05:38:38;;;;;;;10.90;8.60;;;;;;;-143.84;63.19;45199.50;5034815;28;20431;-78
2022/12/23 05:41:06;;;;;;;16.17;8.33;;;;;;;-143.84;63.73;45226.16;5034472;28;21010;-77
2022/12/23 05:43:33;;;;;;;12.33;8.37;;;;;;;-143.84;64.35;45203.31;5034067;28;20450;-77
2022/12/23 05:46:02;;;;;;;10.67;8.50;;;;;;;-143.84;66.03;45212.84;5034487;28;20516;-78
2022/12/23 05:48:29;;;;;;;14.43;8.60;;;;;;;-143.84;65.51;45212.84;5034257;28;20960;-77
2022/12/23 05:50:56;;;;;;;9.00;7.80;;;;;;;-143.84;65.49;45180.47;5033705;28;20494;-78
2022/12/23 05:53:23;;;;;;;15.23;8.47;;;;;;;-143.84;65.03;45214.72;5032852;28;20446;-77
2022/12/23 05:55:51;;;;;;;11.53;8.53;;;;;;;-143.84;64.99;45241.41;5033481;28;20892;-78
2022/12/23 05:58:18;;;;;;;11.60;9.80;;;;;;;-143.84;64.40;45214.72;5031846;28;20431;-78
2022/12/23 06:00:45;;;;;;;14.33;8.30;;;;;;;-143.84;64.54;45191.88;5032583;28;20487;-78
2022/12/23 06:03:14;;;;;;;8.87;7.90;;;;;;;-143.84;64.70;45209.03;5033999;28;20504;-78
2022/12/23 06:05:42;;;;;;;16.57;13.97;;;;;;;-143.84;64.26;45201.41;5033958;28;20534;-81
2022/12/23 06:08:10;;;;;;;24.50;19.23;;;;;;;-143.84;63.88;45243.31;5033062;28;20454;-81
2022/12/23 06:10:37;;;;;;;25.60;22.83;;;;;;;-143.84;63.16;45188.06;5032730;28;20514;-81
2022/12/23 06:13:04;;;;;;;20.70;17.97;;;;;;;-143.84;63.90;45189.97;5032729;28;20438;-81
2022/12/23 06:15:31;;;;;;;20.60;17.40;;;;;;;-143.84;63.16;45189.97;5032680;28;20868;-81
2022/12/23 06:17:58;;;;;;;14.80;12.83;;;;;;;-143.84;63.15;45193.78;5032647;28;20446;-81
2022/12/23 06:20:27;;;;;;;15.57;10.00;;;;;;;-143.84;62.73;45201.41;5032782;28;20431;-81
2022/12/23 06:22:54;;;;;;;15.00;9.23;;;;;;;-143.84;62.18;45178.56;5032875;28;20978;-81
2022/12/23 06:25:21;;;;;;;10.03;8.20;;;;;;;-143.84;61.89;45199.50;5033582;28;20493;-81
2022/12/23 06:27:49;;;;;;;8.97;6.87;;;;;;;-143.84;61.10;45188.06;5033274;28;20853;-82
2022/12/23 06:30:16;;;;;;;9.03;7.33;;;;;;;-143.84;61.44;45176.66;5033137;28;20512;-81
2022/12/23 06:32:43;;;;;;;8.73;6.73;;;;;;;-143.84;61.06;45193.78;5033092;28;20811;-80
2022/12/23 06:35:10;;;;;;;7.10;6.37;;;;;;;-143.84;60.94;45189.97;5032874;28;20893;-80
2022/12/23 06:37:39;;;;;;;26.93;9.00;;;;;;;-143.84;60.61;45216.63;5033009;28;20434;-80
2022/12/23 06:40:07;;;;;;;21.03;7.50;;;;;;;-143.84;61.07;45188.06;5032617;28;20481;-80
2022/12/23 06:42:34;;;;;;;13.70;7.90;;;;;;;-143.84;61.54;45199.50;5032452;28;20528;-80
2022/12/23 06:45:02;;;;;;;10.03;6.67;;;;;;;-143.84;61.62;45189.97;5032950;28;20430;-80
2022/12/23 06:47:29;;;;;;;13.83;7.50;;;;;;;-143.84;61.78;45188.06;5032746;28;20429;-80
2022/12/23 06:49:56;;;;;;;9.20;6.83;;;;;;;-143.84;62.32;45163.31;5032433;28;20481;-81
2022/12/23 06:52:23;;;;;;;10.90;7.40;;;;;;;-143.84;62.38;45178.56;5014840;28;20438;-81
2022/12/23 06:54:52;;;;;;;19.53;7.40;;;;;;;-143.84;61.21;45161.41;5032545;28;20441;-81
2022/12/23 06:57:19;;;;;;;10.27;6.50;;;;;;;-143.84;58.55;45178.56;5032967;28;20442;-83
2022/12/23 06:59:46;;;;;;;18.27;7.73;;;;;;;-143.84;55.49;45174.75;5033711;28;20429;-82
2022/12/23 07:02:13;;;;;;;9.43;7.50;;;;;;;-143.84;54.38;45199.50;5033198;28;20462;-82
2022/12/23 07:04:40;;;;;;;10.10;7.50;;;;;;;-143.84;53.75;45159.50;5031703;28;20439;-82
2022/12/23 07:07:07;;;;;;;12.70;7.80;;;;;;;-143.84;52.54;45184.25;5034512;28;20996;-82
2022/12/23 07:09:34;;;;;;;25.70;7.57;;;;;;;-143.84;52.13;45140.47;5037180;28;20511;-82
2022/12/23 07:12:04;;;;;;;15.03;6.80;;;;;;;-143.84;50.67;45186.16;5036268;28;20432;-83
2022/12/23 07:14:31;;;;;;;8.90;6.87;;;;;;;-143.84;48.93;45132.84;5037403;28;20443;-82
2022/12/23 07:16:58;;;;;;;9.23;6.63;;;;;;;-143.84;47.70;45148.09;5036645;28;20439;-82
2022/12/23 07:19:25;;;;;;;9.93;7.30;;;;;;;-143.84;47.32;45148.09;5036198;28;20832;-83
2022/12/23 07:21:52;;;;;;;10.40;6.50;;;;;;;-143.84;48.53;45170.94;5037125;28;20502;-83
2022/12/23 07:24:19;;;;;;;11.57;7.13;;;;;;;-143.84;47.60;45146.19;5035004;28;20952;-82
2022/12/23 07:26:47;;;;;;;10.40;7.07;;;;;;;-143.84;48.09;45134.75;5032079;28;20482;-82
2022/12/23 07:29:15;;;;;;;11.60;8.27;;;;;;;-143.84;47.40;45127.13;5032156;28;20970;-82
2022/12/23 07:31:43;;;;;;;8.50;7.20;;;;;;;-143.84;48.02;45151.91;5031753;28;20446;-82
2022/12/23 07:34:10;;;;;;;12.40;7.10;;;;;;;-143.84;48.65;45184.25;5031814;28;21103;-82
2022/12/23 07:36:37;;;;;;;9.03;5.97;;;;;;;-143.84;46.72;45167.13;5031892;28;20441;-82
2022/12/23 07:39:05;;;;;;;7.23;5.57;;;;;;;-143.84;45.11;45157.59;5031942;28;20411;-82
2022/12/23 07:41:32;;;;;;;10.87;6.37;;;;;;;-143.84;44.17;45161.41;5031951;28;20441;-82
2022/12/23 07:43:59;;;;;;;16.73;5.50;;;;;;;-143.84;42.86;45148.09;5031561;28;20512;-82
2022/12/23 07:46:28;;;;;;;9.03;4.23;;;;;;;-143.84;40.23;45163.31;5035082;28;20539;-83
2022/12/23 07:48:55;;;;;;;7.17;4.23;;;;;;;-143.84;39.31;45151.91;5036484;28;20455;-83
2022/12/23 07:51:22;;;;;;;6.57;4.40;;;;;;;-143.84;40.04;45125.22;5036476;28;20444;-84
2022/12/23 07:53:50;;;;;;;6.33;4.43;;;;;;;-143.84;39.52;45132.84;5034381;28;20438;-82
2022/12/23 07:56:17;;;;;;;7.57;4.77;;;;;;;-143.84;39.89;45121.44;5032088;28;20472;-82
2022/12/23 07:58:48;;;;;;;8.47;4.80;;;;;;;-143.84;39.53;45132.84;5032818;28;20990;-83
2022/12/23 08:01:15;;;;;;;9.30;5.10;;;;;;;-143.84;40.47;45129.03;5031553;28;20435;-83
2022/12/23 08:03:43;;;;;;;14.07;9.90;;;;;;;-143.84;42.14;45161.41;5032071;28;20430;-83
2022/12/23 08:06:13;;;;;;;18.03;10.20;;;;;;;-143.84;42.35;45142.38;5031985;28;20469;-83
2022/12/23 08:08:41;;;;;;;13.03;8.60;;;;;;;-143.84;42.68;45140.47;5031701;28;20442;-83
2022/12/23 08:11:10;;;;;;;20.07;11.93;;;;;;;-143.84;43.53;45134.75;5030954;28;20478;-83
2022/12/23 08:13:39;;;;;;;29.80;14.40;;;;;;;-143.84;43.56;45134.75;5031755;28;20492;-83
2022/12/23 08:16:07;;;;;;;29.63;17.30;;;;;;;-143.84;44.17;45146.19;5031961;28;20427;-83
2022/12/23 08:18:36;;;;;;;37.90;18.10;;;;;;;-143.84;43.87;45129.03;5032529;28;20485;-83
2022/12/23 08:21:07;;;;;;;18.57;12.80;;;;;;;-143.84;42.99;45113.81;5031751;28;20808;-83
2022/12/23 08:23:35;;;;;;;31.80;14.27;;;;;;;-143.84;41.06;45104.28;5034597;28;20435;-83
2022/12/23 08:26:04;;;;;;;30.73;15.13;;;;;;;-143.84;41.19;45123.34;5038456;28;20469;-84
2022/12/23 08:28:32;;;;;;;36.27;19.30;;;;;;;-143.84;41.95;45121.44;5037839;28;20500;-83
2022/12/23 08:31:05;;;;;;;13.33;9.83;;;;;;;-143.84;39.84;45089.06;5037118;28;20866;-84
2022/12/23 08:33:32;;;;;;;10.47;6.37;;;;;;;-143.84;38.55;45108.09;5036930;28;20495;-84
2022/12/23 08:35:59;;;;;;;13.47;7.70;;;;;;;-143.84;39.29;45104.28;5038294;28;20494;-83
2022/12/23 08:38:28;;;;;;;18.33;10.50;;;;;;;-143.84;39.82;45136.66;5036370;28;20479;-84
2022/12/23 08:40:56;;;;;;;34.77;22.50;;;;;;;-143.84;41.42;45121.44;5035958;28;20432;-84
2022/12/23 08:43:23;;;;;;;41.60;21.80;;;;;;;-143.84;42.70;45129.03;5035390;28;20465;-84
2022/12/23 08:45:50;;;;;;;34.57;23.77;;;;;;;-143.84;43.62;45123.34;5035445;28;20431;-83
2022/12/23 08:48:17;;;;;;;48.23;25.83;;;;;;;-143.84;44.40;45102.38;5034791;28;20510;-84
2022/12/23 08:50:47;;;;;;;37.33;26.80;;;;;;;-143.84;44.06;45119.53;5035049;28;20506;-83
2022/12/23 08:53:15;;;;;;;38.10;25.13;;;;;;;-143.84;44.27;45123.34;5034796;28;20507;-84
2022/12/23 08:55:45;;;;;;;44.80;27.70;;;;;;;-143.84;44.87;45142.38;5034646;28;20446;-84
2022/12/23 08:58:14;;;;;;;40.93;26.37;;;;;;;-143.84;45.17;45117.63;5035020;28;20496;-84
2022/12/23 09:00:41;;;;;;;42.77;28.80;;;;;;;-143.84;45.49;45142.38;5034562;28;20427;-84
2022/12/23 09:03:09;;;;;;;51.63;29.17;;;;;;;-143.84;46.38;45113.81;5034385;28;20446;-83
2022/12/23 09:05:41;;;;;;;57.93;30.60;;;;;;;-143.84;46.95;45129.03;5034268;28;20832;-84
2022/12/23 09:08:09;;;;;;;54.33;29.53;;;;;;;-143.84;47.34;45106.19;5034339;28;21002;-83
2022/12/23 09:10:41;;;;;;;63.73;29.23;;;;;;;-143.84;47.44;45144.28;5034133;28;20493;-83
2022/12/23 09:13:10;;;;;;;44.00;31.37;;;;;;;-143.84;47.68;45130.94;5034032;28;20438;-84
2022/12/23 09:15:41;;;;;;;60.63;31.90;;;;;;;-143.84;48.62;45159.50;5033446;28;20862;-83
2022/12/23 09:18:08;;;;;;;49.53;28.57;;;;;;;-143.84;48.59;45130.94;5032875;28;20956;-83
2022/12/23 09:20:35;;;;;;;44.87;29.03;;;;;;;-143.84;48.83;45119.53;5034055;28;20442;-83
2022/12/23 09:23:03;;;;;;;52.90;27.00;;;;;;;-143.84;48.18;45138.56;5034114;28;20446;-83
2022/12/23 09:25:30;;;;;;;46.53;28.83;;;;;;;-143.84;47.54;45138.56;5033832;28;20438;-83
2022/12/23 09:27:57;;;;;;;60.80;33.43;;;;;;;-143.84;47.91;45123.34;5033805;28;20488;-83
2022/12/23 09:30:26;;;;;;;60.57;32.53;;;;;;;-143.84;46.91;45125.22;5034214;28;20442;-83
2022/12/23 09:32:53;;;;;;;52.37;35.13;;;;;;;-143.84;48.18;45142.38;5033636;28;20865;-85
2022/12/23 09:35:20;;;;;;;73.73;34.47;;;;;;;-143.84;48.32;45129.03;5033288;28;20442;-84
2022/12/23 09:37:48;;;;;;;52.80;36.13;;;;;;;-143.84;48.17;45138.56;5034266;28;20435;-85
2022/12/23 09:40:20;;;;;;;69.53;38.03;;;;;;;-143.84;47.57;45132.84;5034765;28;20423;-84
2022/12/23 09:42:57;;;;;;;61.10;34.40;;;;;;;-143.84;46.36;45136.66;5034902;28;20503;-84
2022/12/23 09:45:44;;;;;;;49.00;31.93;;;;;;;-143.84;44.00;45127.13;5034896;28;20427;-84
2022/12/23 09:48:17;;;;;;;42.30;23.47;;;;;;;-143.84;43.73;45117.63;5035283;28;20980;-83
2022/12/23 09:50:45;;;;;;;47.80;26.23;;;;;;;-143.84;43.32;45115.72;5035116;28;20428;-84
2022/12/23 09:53:17;;;;;;;44.50;23.90;;;;;;;-143.84;43.25;45104.28;5034316;28;20489;-83
2022/12/23 09:55:50;;;;;;;35.57;23.03;;;;;;;-143.84;44.03;45125.22;5035032;28;20429;-83
2022/12/23 09:58:26;;;;;;;28.17;17.10;;;;;;;-143.84;44.52;45136.66;5035187;28;20420;-83
2022/12/23 10:01:08;;;;;;;11.90;7.07;;;;;;;-143.84;44.16;45134.75;5033455;28;20442;-84
2022/12/23 10:03:50;;;;;;;9.50;5.03;;;;;;;-143.84;43.46;45125.22;5033363;28;20494;-84
2022/12/23 10:06:23;;;;;;;9.10;5.67;;;;;;;-143.84;43.52;45134.75;5033813;28;21625;-84
2022/12/23 10:08:55;;;;;;;8.10;5.13;;;;;;;-143.84;43.64;45098.56;5033536;28;20431;-84
2022/12/23 10:11:25;;;;;;;9.10;4.27;;;;;;;-143.84;43.60;45138.56;5032967;28;20847;-85
2022/12/23 10:13:56;;;;;;;5.00;3.20;;;;;;;-143.84;42.27;45132.84;5033247;28;20433;-85
2022/12/23 10:16:30;;;;;;;6.57;4.10;;;;;;;-143.84;42.11;45117.63;5033183;28;20835;-85
2022/12/23 10:19:01;;;;;;;9.80;4.77;;;;;;;-143.84;42.39;45121.44;5033562;28;20861;-84
2022/12/23 10:21:32;;;;;;;4.60;4.20;;;;;;;-143.84;41.72;45153.81;5032819;28;20442;-84
2022/12/23 10:24:03;;;;;;;7.57;3.87;;;;;;;-143.84;41.02;45132.84;5032865;28;20447;-84
2022/12/23 10:26:34;;;;;;;5.90;3.80;;;;;;;-143.84;40.75;45138.56;5033211;28;20493;-84
2022/12/23 10:29:15;;;;;;;5.93;4.17;;;;;;;-143.84;41.12;45144.28;5033032;28;20428;-84
2022/12/23 10:31:53;;;;;;;8.60;3.53;;;;;;;-143.84;41.28;45090.97;5032685;28;20952;-85
2022/12/23 10:34:26;;;;;;;3.47;3.17;;;;;;;-143.84;41.74;45130.94;5032668;28;20434;-84
2022/12/23 10:37:00;;;;;;;5.47;3.20;;;;;;;-143.84;41.61;45132.84;5031871;28;20488;-78
2022/12/23 10:39:38;;;;;;;6.00;3.43;;;;;;;-143.84;42.03;45134.75;5032590;28;20527;-86
2022/12/23 10:42:18;;;;;;;4.27;3.20;;;;;;;-143.84;42.22;45110.00;5036552;28;20473;-84
2022/12/23 10:45:08;;;;;;;3.80;3.37;;;;;;;-143.84;42.92;45155.69;5012698;28;20933;-83
2022/12/23 10:47:49;;;;;;;7.43;4.50;;;;;;;-143.84;42.48;45129.03;5012780;28;20518;-83
2022/12/23 10:50:45;;;;;;;3.60;3.30;;;;;;;-143.84;42.31;45125.22;5013252;28;20424;-84
2022/12/23 10:53:16;;;;;;;11.70;3.83;;;;;;;-143.84;41.96;45169.03;5012813;28;20823;-83
2022/12/23 10:55:45;;;;;;;4.97;3.90;;;;;;;-143.84;41.96;45127.13;5012952;28;20436;-83
2022/12/23 10:58:17;;;;;;;11.73;4.90;;;;;;;-143.84;41.74;45110.00;5012863;28;20436;-84
2022/12/23 11:00:50;;;;;;;6.70;3.97;;;;;;;-143.84;41.14;45094.78;5013094;28;20463;-84
2022/12/23 11:03:22;;;;;;;7.50;6.07;;;;;;;-143.84;41.20;45125.22;5013013;28;20560;-84
2022/12/23 11:05:52;;;;;;;9.93;6.10;;;;;;;-143.84;40.85;45111.91;5012371;28;20440;-84
2022/12/23 11:08:21;;;;;;;6.80;5.60;;;;;;;-143.84;40.80;45121.44;5012120;28;20532;-84
2022/12/23 11:10:49;;;;;;;11.80;7.40;;;;;;;-143.84;41.17;45090.97;5012406;28;20914;-84
2022/12/23 11:13:36;;;;;;;6.97;5.23;;;;;;;-143.84;40.88;45130.94;5012535;28;20943;-83
2022/12/23 11:16:18;;;;;;;7.50;4.83;;;;;;;-143.84;41.08;45102.38;5012480;28;20442;-84
2022/12/23 11:19:03;;;;;;;6.23;4.60;;;;;;;-143.84;41.61;45144.28;5012515;28;20446;-84
2022/12/23 11:21:31;;;;;;;8.20;4.50;;;;;;;-143.84;41.96;45125.22;5012186;28;20439;-84
2022/12/23 11:24:21;;;;;;;6.90;4.90;;;;;;;-143.84;42.43;45146.19;5012338;28;20439;-84
2022/12/23 11:26:59;;;;;;;6.83;5.20;;;;;;;-143.84;42.76;45136.66;5012581;28;20884;-83
2022/12/23 11:29:30;;;;;;;4.60;4.20;;;;;;;-143.84;43.09;45130.94;5012704;28;20431;-84
2022/12/23 11:31:58;;;;;;;6.53;4.30;;;;;;;-143.84;43.23;45140.47;5012600;28;20459;-84
2022/12/23 11:34:30;;;;;;;7.40;5.37;;;;;;;-143.84;43.13;45134.75;5012406;28;20456;-84
2022/12/23 11:36:59;;;;;;;10.43;5.70;;;;;;;-143.84;43.29;45113.81;5011996;28;21032;-84
2022/12/23 11:39:29;;;;;;;5.77;5.10;;;;;;;-143.84;43.36;45136.66;5012229;28;20446;-83
2022/12/23 11:42:04;;;;;;;10.03;6.10;;;;;;;-143.84;43.47;45132.84;5012322;28;20454;-84
2022/12/23 11:44:36;;;;;;;9.90;5.73;;;;;;;-143.84;43.64;45136.66;5012659;28;20501;-83
2022/12/23 11:47:20;;;;;;;17.47;8.07;;;;;;;-143.84;44.02;45132.84;5011896;28;20577;-83
2022/12/23 11:49:51;;;;;;;11.23;7.37;;;;;;;-143.84;44.27;45130.94;5011926;28;21324;-84
2022/12/23 11:52:20;;;;;;;13.27;9.73;;;;;;;-143.84;44.17;45140.47;5012046;28;20478;-83
2022/12/23 11:54:53;;;;;;;15.97;11.37;;;;;;;-143.84;44.30;45129.03;5011891;28;20438;-83
2022/12/23 11:57:26;;;;;;;20.60;10.80;;;;;;;-143.84;45.00;45117.63;5011173;28;20505;-84